Time;durP1;ratioP1;P1;durP2;ratioP2;P2;SDS_P1;SDS_P2;PMS_P1;PMS_P2;Temp;Humidity;BMP_temperature;BMP_pressure;BME280_temperature;BME280_humidity;BME280_pressure;Samples;Min_cycle;Max_cycle;Signal;HPM_P1;HPM_P2
2023/01/11 00:01:58;;;;;;;1.50;1.20;;;8.70;1.00;;;;;;4868326;29;20193;-66
2023/01/11 00:04:29;;;;;;;1.57;1.17;;;8.80;1.00;;;;;;4867464;29;20880;-65
2023/01/11 00:06:56;;;;;;;2.70;1.20;;;8.80;1.00;;;;;;4854914;29;20226;-65
2023/01/11 00:09:24;;;;;;;1.93;1.37;;;8.80;1.00;;;;;;4851697;29;20300;-65
2023/01/11 00:11:51;;;;;;;3.50;1.27;;;8.90;1.00;;;;;;4868467;29;20241;-66
2023/01/11 00:14:17;;;;;;;1.10;0.80;;;8.80;1.00;;;;;;4851844;29;20214;-65
2023/01/11 00:16:44;;;;;;;3.20;1.10;;;8.80;1.00;;;;;;4867153;29;20220;-65
2023/01/11 00:19:12;;;;;;;1.67;1.57;;;8.90;1.00;;;;;;4838113;29;20340;-66
2023/01/11 00:21:38;;;;;;;1.07;0.73;;;8.80;1.00;;;;;;4858353;29;20257;-66
2023/01/11 00:24:05;;;;;;;1.43;0.97;;;8.80;1.00;;;;;;4866531;29;20206;-65
2023/01/11 00:26:33;;;;;;;1.63;0.90;;;8.90;1.00;;;;;;4867801;29;20209;-65
2023/01/11 00:28:59;;;;;;;1.50;1.00;;;8.90;1.00;;;;;;4869240;29;20787;-65
2023/01/11 00:31:26;;;;;;;1.53;0.97;;;8.90;1.00;;;;;;4842975;29;20235;-65
2023/01/11 00:33:53;;;;;;;2.30;1.00;;;8.90;1.00;;;;;;4852054;29;20328;-66
2023/01/11 00:36:20;;;;;;;2.17;1.87;;;8.90;1.00;;;;;;4858327;29;20209;-66
2023/01/11 00:38:52;;;;;;;1.57;1.00;;;8.90;1.00;;;;;;4857392;29;20200;-65
2023/01/11 00:49:42;;;;;;;1.13;0.93;;;9.00;1.00;;;;;;4867043;29;20216;-65
2023/01/11 00:52:12;;;;;;;2.67;1.10;;;9.00;1.00;;;;;;4868643;29;20245;-65
2023/01/11 00:54:41;;;;;;;1.10;1.00;;;9.00;1.00;;;;;;4866517;29;20214;-67
2023/01/11 00:57:08;;;;;;;1.00;0.97;;;9.00;1.00;;;;;;4866229;29;20565;-66
2023/01/11 00:59:36;;;;;;;0.87;0.80;;;9.10;1.00;;;;;;4864764;29;20281;-66
2023/01/11 01:02:03;;;;;;;1.60;0.90;;;9.10;1.00;;;;;;4866773;29;20236;-65
2023/01/11 01:04:31;;;;;;;1.30;0.90;;;9.00;1.00;;;;;;4867352;29;20264;-66
2023/01/11 01:06:58;;;;;;;0.87;0.87;;;9.10;1.00;;;;;;4850808;29;20262;-66
2023/01/11 01:09:25;;;;;;;0.70;0.70;;;9.10;1.00;;;;;;4867257;29;20556;-66
2023/01/11 01:11:52;;;;;;;1.03;0.80;;;9.10;1.00;;;;;;4879188;29;20780;-69
2023/01/11 01:14:27;;;;;;;1.43;1.30;;;9.20;1.00;;;;;;4850337;29;20237;-66
2023/01/11 01:17:01;;;;;;;1.40;0.77;;;9.20;1.00;;;;;;4865015;29;20189;-67
2023/01/11 01:19:29;;;;;;;0.77;0.70;;;9.30;1.00;;;;;;4868082;29;20202;-66
2023/01/11 01:21:58;;;;;;;1.07;0.90;;;9.30;1.00;;;;;;4866438;29;20199;-66
2023/01/11 01:24:27;;;;;;;1.90;0.93;;;9.30;1.00;;;;;;4858243;29;20211;-66
2023/01/11 01:26:58;;;;;;;1.90;0.80;;;9.30;1.00;;;;;;4848763;29;20197;-67
2023/01/11 01:29:25;;;;;;;1.47;0.90;;;9.30;1.00;;;;;;4867085;29;20245;-66
2023/01/11 01:31:52;;;;;;;0.70;0.70;;;9.30;1.00;;;;;;4867042;29;20242;-66
2023/01/11 01:34:19;;;;;;;4.73;0.90;;;9.30;1.00;;;;;;4867671;29;20222;-65
2023/01/11 01:36:46;;;;;;;1.50;1.00;;;9.40;1.00;;;;;;4847683;29;20194;-64
2023/01/11 01:39:13;;;;;;;0.90;0.60;;;9.40;1.00;;;;;;4841319;29;20294;-64
2023/01/11 01:41:40;;;;;;;2.30;1.10;;;9.50;1.00;;;;;;4864844;29;20235;-65
2023/01/11 01:44:45;;;;;;;1.00;0.90;;;9.50;1.00;;;;;;4866937;29;20202;-65
2023/01/11 01:47:13;;;;;;;0.70;0.70;;;9.50;1.00;;;;;;4863801;29;20198;-66
2023/01/11 01:49:42;;;;;;;0.70;0.70;;;9.60;1.00;;;;;;4841482;29;20244;-65
2023/01/11 01:52:11;;;;;;;0.87;0.70;;;9.60;1.00;;;;;;4846340;29;20214;-65
2023/01/11 01:54:42;;;;;;;1.40;0.70;;;9.60;1.00;;;;;;4867108;29;20595;-69
2023/01/11 01:57:16;;;;;;;0.60;0.60;;;9.60;1.00;;;;;;4849113;29;20255;-66
2023/01/11 01:59:43;;;;;;;1.60;1.00;;;9.60;1.00;;;;;;4849672;29;20198;-65
2023/01/11 02:02:10;;;;;;;1.03;0.67;;;9.70;1.00;;;;;;4866192;29;20698;-65
2023/01/11 02:04:42;;;;;;;0.77;0.77;;;9.70;1.00;;;;;;4855774;29;20351;-65
2023/01/11 02:07:24;;;;;;;0.90;0.63;;;9.70;1.00;;;;;;4863800;29;20427;-65
2023/01/11 02:10:09;;;;;;;1.33;0.80;;;9.60;1.00;;;;;;4849175;29;20684;-65
2023/01/11 02:12:56;;;;;;;0.70;0.70;;;9.70;1.00;;;;;;4851547;29;20221;-65
2023/01/11 02:15:24;;;;;;;1.13;0.80;;;9.80;1.00;;;;;;4862724;29;20229;-66
2023/01/11 02:17:51;;;;;;;0.90;0.90;;;9.80;1.00;;;;;;4857907;29;20556;-65
2023/01/11 02:20:33;;;;;;;0.73;0.73;;;9.80;1.00;;;;;;4840703;29;20214;-65
2023/01/11 02:23:06;;;;;;;1.70;0.80;;;9.80;1.00;;;;;;4863968;29;20288;-65
2023/01/11 02:26:15;;;;;;;1.10;1.00;;;9.80;1.00;;;;;;4865532;29;20615;-65
2023/01/11 02:28:45;;;;;;;0.70;0.70;;;9.80;1.00;;;;;;4849403;29;20217;-65
2023/01/11 02:31:50;;;;;;;0.70;0.70;;;9.80;1.00;;;;;;4880635;29;20210;-65
2023/01/11 02:34:43;;;;;;;0.77;0.77;;;9.80;1.00;;;;;;4834163;29;20230;-65
2023/01/11 02:37:45;;;;;;;0.67;0.67;;;9.70;1.00;;;;;;4833087;29;20216;-66
2023/01/11 02:40:37;;;;;;;0.60;0.60;;;9.80;1.00;;;;;;4848274;29;20564;-65
2023/01/11 02:46:10;;;;;;;0.97;0.50;;;9.80;1.00;;;;;;4849665;29;20209;-66
2023/01/11 02:48:52;;;;;;;0.60;0.60;;;9.80;1.00;;;;;;4866110;29;20771;-65
2023/01/11 02:51:32;;;;;;;0.50;0.50;;;9.90;1.00;;;;;;4865532;29;20208;-66
2023/01/11 02:54:08;;;;;;;0.73;0.70;;;9.90;1.00;;;;;;4866727;29;20728;-66
2023/01/11 02:56:40;;;;;;;2.00;0.73;;;9.90;1.00;;;;;;4863598;29;20562;-65
2023/01/11 02:59:14;;;;;;;2.23;0.70;;;9.80;1.00;;;;;;4863800;29;20654;-65
2023/01/11 03:01:46;;;;;;;0.97;0.70;;;9.80;1.00;;;;;;4847925;29;20296;-65
2023/01/11 03:04:22;;;;;;;1.70;0.70;;;9.90;1.00;;;;;;4848669;29;20247;-65
2023/01/11 03:07:12;;;;;;;0.70;0.70;;;9.90;1.00;;;;;;4854570;29;20619;-65
2023/01/11 03:10:21;;;;;;;0.60;0.60;;;9.90;1.00;;;;;;4850106;29;20206;-65
2023/01/11 03:13:29;;;;;;;0.70;0.70;;;9.90;1.00;;;;;;4850363;29;20230;-65
2023/01/11 03:15:56;;;;;;;0.90;0.70;;;9.90;1.00;;;;;;4848047;29;20618;-65
2023/01/11 03:18:35;;;;;;;0.70;0.70;;;9.80;1.00;;;;;;4866245;29;20224;-66
2023/01/11 03:21:37;;;;;;;0.50;0.50;;;9.80;1.00;;;;;;4855467;29;20722;-65
2023/01/11 03:24:34;;;;;;;1.00;0.60;;;9.80;1.00;;;;;;4863306;29;20563;-64
2023/01/11 03:27:11;;;;;;;0.60;0.60;;;9.90;1.00;;;;;;4854135;29;20293;-64
2023/01/11 03:30:00;;;;;;;1.10;0.80;;;9.90;1.00;;;;;;4847988;29;20213;-65
2023/01/11 03:32:30;;;;;;;0.80;0.60;;;9.90;1.00;;;;;;4869592;29;20210;-65
2023/01/11 03:35:11;;;;;;;0.60;0.60;;;9.90;1.00;;;;;;4866815;29;20212;-65
2023/01/11 03:38:00;;;;;;;2.03;1.53;;;10.00;1.00;;;;;;4851824;29;20276;-64
2023/01/11 03:40:40;;;;;;;1.37;0.60;;;9.90;1.00;;;;;;4869102;29;20752;-64
2023/01/11 03:43:10;;;;;;;0.63;0.53;;;9.90;1.00;;;;;;4850856;29;20635;-65
2023/01/11 03:45:49;;;;;;;0.83;0.60;;;9.90;1.00;;;;;;4869101;29;20209;-64
2023/01/11 03:48:24;;;;;;;0.43;0.43;;;9.90;1.00;;;;;;4867779;29;20682;-64
2023/01/11 03:50:54;;;;;;;1.90;0.60;;;9.90;1.00;;;;;;4865718;29;20252;-64
2023/01/11 03:53:24;;;;;;;0.60;0.60;;;10.00;1.00;;;;;;4852716;29;20502;-64
2023/01/11 03:55:56;;;;;;;0.67;0.60;;;10.00;1.00;;;;;;4866297;29;20208;-68
2023/01/11 03:58:26;;;;;;;0.50;0.50;;;10.00;1.00;;;;;;4836727;29;20595;-69
2023/01/11 04:00:55;;;;;;;0.50;0.50;;;10.00;1.00;;;;;;4865514;29;20230;-66
2023/01/11 04:03:22;;;;;;;0.60;0.60;;;9.90;1.00;;;;;;4867063;29;20225;-65
2023/01/11 04:05:57;;;;;;;0.80;0.60;;;9.90;1.00;;;;;;4868342;29;20236;-65
2023/01/11 04:08:25;;;;;;;0.50;0.50;;;9.80;1.00;;;;;;4858194;29;20262;-65
2023/01/11 04:10:51;;;;;;;0.40;0.40;;;9.90;1.00;;;;;;4866445;29;20202;-64
2023/01/11 04:13:21;;;;;;;0.50;0.50;;;9.90;1.00;;;;;;4868691;29;20308;-64
2023/01/11 04:15:48;;;;;;;0.50;0.50;;;9.80;1.00;;;;;;4878427;29;20230;-63
2023/01/11 04:18:15;;;;;;;0.60;0.57;;;9.80;1.00;;;;;;4869027;29;20208;-65
2023/01/11 04:20:42;;;;;;;0.60;0.60;;;9.90;1.00;;;;;;4868757;29;20226;-63
2023/01/11 04:23:09;;;;;;;0.40;0.40;;;9.90;1.00;;;;;;4862646;29;20194;-66
2023/01/11 04:25:36;;;;;;;0.50;0.50;;;9.80;1.00;;;;;;4842935;29;20866;-66
2023/01/11 04:28:03;;;;;;;1.50;0.93;;;9.90;1.00;;;;;;4857170;29;20277;-65
2023/01/11 04:30:30;;;;;;;1.60;1.50;;;9.90;1.00;;;;;;4868423;29;20250;-67
2023/01/11 04:32:58;;;;;;;1.90;0.87;;;9.80;17.10;;;;;;4867045;29;20225;-69
2023/01/11 04:35:26;;;;;;;0.60;0.60;;;9.80;36.20;;;;;;4851952;29;20257;-70
2023/01/11 04:37:56;;;;;;;0.80;0.80;;;9.70;71.30;;;;;;4858441;29;20226;-69
2023/01/11 04:40:24;;;;;;;0.60;0.60;;;9.60;99.90;;;;;;4849806;29;20229;-69
2023/01/11 04:42:51;;;;;;;0.60;0.60;;;9.60;99.90;;;;;;4867093;29;20556;-69
2023/01/11 04:45:18;;;;;;;1.77;1.20;;;9.60;99.90;;;;;;4850706;29;20210;-69
2023/01/11 04:47:45;;;;;;;1.07;0.60;;;9.60;99.90;;;;;;4851233;29;20655;-69
2023/01/11 04:50:12;;;;;;;1.23;0.70;;;9.50;99.90;;;;;;4867630;29;20297;-69
2023/01/11 04:52:40;;;;;;;1.40;0.70;;;9.50;99.90;;;;;;4851042;29;20490;-69
2023/01/11 04:55:08;;;;;;;0.60;0.60;;;9.50;99.90;;;;;;4850349;29;20186;-69
2023/01/11 04:57:35;;;;;;;0.60;0.60;;;9.50;99.90;;;;;;4856508;29;20603;-72
2023/01/11 05:00:07;;;;;;;0.50;0.50;;;9.50;99.90;;;;;;4856417;29;20290;-69
2023/01/11 05:02:38;;;;;;;1.17;0.50;;;9.60;99.90;;;;;;4850431;29;20215;-69
2023/01/11 05:05:06;;;;;;;1.57;1.47;;;9.60;99.90;;;;;;4856251;29;20651;-69
2023/01/11 05:07:33;;;;;;;0.70;0.70;;;9.50;99.90;;;;;;4850512;29;20312;-69
2023/01/11 05:10:00;;;;;;;1.00;0.90;;;9.60;99.90;;;;;;4856014;29;20222;-69
2023/01/11 05:12:27;;;;;;;0.50;0.50;;;9.50;99.90;;;;;;4867679;29;20265;-69
2023/01/11 05:14:55;;;;;;;0.60;0.60;;;9.60;99.90;;;;;;4865126;29;20198;-69
2023/01/11 05:17:22;;;;;;;0.77;0.70;;;9.60;99.90;;;;;;4857430;29;20210;-69
2023/01/11 05:19:49;;;;;;;0.87;0.80;;;9.60;99.90;;;;;;4867729;29;20204;-70
2023/01/11 05:22:16;;;;;;;0.60;0.60;;;9.60;99.90;;;;;;4865545;29;20613;-69
2023/01/11 05:24:43;;;;;;;2.47;0.70;;;9.60;99.90;;;;;;4865260;29;20201;-73
2023/01/11 05:27:10;;;;;;;1.03;0.60;;;9.70;99.90;;;;;;4863323;29;20648;-70
2023/01/11 05:29:37;;;;;;;0.60;0.60;;;9.60;99.90;;;;;;4860984;29;20209;-69
2023/01/11 05:32:05;;;;;;;1.63;0.60;;;9.60;99.90;;;;;;4853355;29;20216;-68
2023/01/11 05:34:32;;;;;;;0.50;0.50;;;9.60;99.90;;;;;;4865532;29;20930;-68
2023/01/11 05:36:59;;;;;;;1.07;0.60;;;9.70;99.90;;;;;;4847737;29;20242;-68
2023/01/11 05:39:28;;;;;;;0.67;0.60;;;9.70;99.90;;;;;;4866103;29;20225;-68
2023/01/11 05:41:55;;;;;;;1.33;0.70;;;9.70;99.90;;;;;;4866725;29;20190;-67
2023/01/11 05:47:07;;;;;;;0.90;0.80;;;9.80;99.90;;;;;;4867232;29;20285;-67
2023/01/11 05:49:34;;;;;;;0.60;0.60;;;9.80;99.90;;;;;;4868162;29;20273;-68
2023/01/11 05:52:04;;;;;;;0.70;0.63;;;9.80;99.90;;;;;;4865668;29;20201;-64
2023/01/11 05:54:33;;;;;;;2.27;0.60;;;9.80;99.90;;;;;;4849443;29;20660;-64
2023/01/11 05:57:00;;;;;;;0.80;0.80;;;9.80;99.90;;;;;;4864790;29;20252;-64
2023/01/11 05:59:27;;;;;;;3.43;2.40;;;9.80;99.90;;;;;;4866586;29;20759;-65
2023/01/11 06:01:57;;;;;;;2.03;1.67;;;9.70;1.00;;;;;;4839611;29;20202;-64
2023/01/11 06:04:24;;;;;;;6.97;4.90;;;9.80;1.00;;;;;;4864516;29;20253;-67
2023/01/11 06:06:51;;;;;;;0.57;0.57;;;9.80;1.00;;;;;;4864961;29;20214;-64
2023/01/11 06:09:19;;;;;;;0.93;0.70;;;9.80;1.00;;;;;;4865860;29;20206;-65
2023/01/11 06:11:47;;;;;;;0.60;0.60;;;9.80;1.00;;;;;;4847021;29;20658;-66
2023/01/11 06:14:14;;;;;;;0.90;0.90;;;9.80;1.00;;;;;;4853145;29;20797;-65
2023/01/11 06:16:41;;;;;;;1.37;1.23;;;9.80;1.00;;;;;;4850711;29;20198;-64
2023/01/11 06:19:10;;;;;;;1.80;1.10;;;9.80;1.00;;;;;;4862988;29;20719;-65
2023/01/11 06:21:37;;;;;;;0.67;0.60;;;9.80;1.00;;;;;;4854687;29;20359;-64
2023/01/11 06:24:04;;;;;;;2.20;0.90;;;9.80;1.00;;;;;;4852702;29;20210;-67
2023/01/11 06:26:31;;;;;;;0.80;0.80;;;9.80;1.00;;;;;;4863590;29;20238;-64
2023/01/11 06:28:58;;;;;;;2.30;0.70;;;9.80;1.00;;;;;;4864735;29;20222;-66
2023/01/11 06:31:25;;;;;;;0.80;0.80;;;9.80;1.00;;;;;;4849463;29;20218;-64
2023/01/11 06:33:52;;;;;;;2.03;0.80;;;9.80;1.00;;;;;;4854470;29;20317;-65
2023/01/11 06:36:19;;;;;;;0.80;0.80;;;9.80;1.00;;;;;;4865644;29;20198;-64
2023/01/11 06:38:46;;;;;;;0.83;0.83;;;9.80;1.00;;;;;;4865529;29;20190;-66
2023/01/11 06:41:13;;;;;;;0.73;0.70;;;9.80;1.00;;;;;;4879128;29;20301;-65
2023/01/11 06:43:40;;;;;;;1.00;0.90;;;9.80;1.00;;;;;;4864419;29;20205;-66
2023/01/11 06:46:18;;;;;;;1.63;1.10;;;9.80;1.00;;;;;;4853420;29;20202;-64
2023/01/11 06:48:46;;;;;;;3.20;0.80;;;9.80;1.00;;;;;;4862231;29;20704;-65
2023/01/11 06:51:14;;;;;;;0.77;0.70;;;9.80;1.00;;;;;;4863537;29;20210;-65
2023/01/11 06:53:43;;;;;;;0.70;0.70;;;9.80;1.00;;;;;;4863085;29;20218;-66
2023/01/11 06:56:13;;;;;;;1.10;0.90;;;9.80;1.00;;;;;;4862804;29;20237;-65
2023/01/11 06:58:41;;;;;;;1.17;0.77;;;9.80;1.00;;;;;;4863263;29;20558;-68
2023/01/11 07:01:08;;;;;;;2.87;2.27;;;9.80;1.00;;;;;;4863603;29;20836;-66
2023/01/11 07:03:35;;;;;;;1.20;1.10;;;9.80;1.00;;;;;;4865008;29;20860;-65
2023/01/11 07:06:03;;;;;;;0.93;0.70;;;9.80;1.00;;;;;;4863382;29;20218;-66
2023/01/11 07:08:30;;;;;;;1.50;1.40;;;9.80;1.00;;;;;;4866190;29;20644;-64
2023/01/11 07:10:57;;;;;;;2.43;1.10;;;9.80;1.00;;;;;;4837687;29;20220;-66
2023/01/11 07:13:24;;;;;;;1.40;1.30;;;9.90;1.00;;;;;;4865771;29;20213;-65
2023/01/11 07:15:52;;;;;;;1.07;0.97;;;9.90;1.00;;;;;;4863417;29;20202;-64
2023/01/11 07:18:20;;;;;;;0.80;0.80;;;9.90;1.00;;;;;;4853514;29;20202;-65
2023/01/11 07:20:47;;;;;;;2.47;2.07;;;9.90;1.00;;;;;;4863103;29;20197;-64
2023/01/11 07:23:14;;;;;;;3.27;1.00;;;9.90;1.00;;;;;;4862723;29;20250;-65
2023/01/11 07:25:41;;;;;;;1.40;1.03;;;10.00;1.00;;;;;;4833062;29;20715;-65
2023/01/11 07:28:08;;;;;;;0.93;0.90;;;9.90;1.00;;;;;;4863857;29;20218;-65
2023/01/11 07:30:39;;;;;;;1.00;0.90;;;9.90;11.00;;;;;;4864252;29;20221;-64
2023/01/11 07:33:23;;;;;;;1.10;1.00;;;10.00;33.20;;;;;;4848351;29;20199;-65
2023/01/11 07:35:51;;;;;;;1.47;1.20;;;9.90;77.30;;;;;;4865155;29;20205;-65
2023/01/11 07:38:18;;;;;;;1.53;1.00;;;10.00;93.00;;;;;;4845961;29;20211;-63
2023/01/11 07:40:45;;;;;;;0.87;0.80;;;10.00;43.70;;;;;;4852762;29;20218;-65
2023/01/11 07:43:13;;;;;;;2.60;1.07;;;10.00;49.10;;;;;;4850624;29;20202;-64
2023/01/11 07:45:43;;;;;;;1.53;0.80;;;10.00;59.20;;;;;;4862601;29;20241;-64
2023/01/11 07:48:14;;;;;;;2.47;0.77;;;10.00;51.90;;;;;;4845959;29;20217;-64
2023/01/11 07:50:41;;;;;;;2.07;0.90;;;10.00;78.90;;;;;;4864302;29;20198;-64
2023/01/11 07:53:12;;;;;;;0.80;0.80;;;10.10;20.30;;;;;;4863402;29;20255;-64
2023/01/11 07:55:39;;;;;;;2.40;1.00;;;10.10;17.80;;;;;;4863470;29;20629;-64
2023/01/11 07:58:09;;;;;;;1.97;1.10;;;10.10;39.70;;;;;;4847829;29;20218;-66
2023/01/11 08:00:36;;;;;;;0.80;0.80;;;10.10;38.90;;;;;;4863860;29;20524;-63
2023/01/11 08:03:03;;;;;;;2.60;1.00;;;10.10;90.00;;;;;;4864261;29;20577;-66
2023/01/11 08:05:32;;;;;;;2.60;1.30;;;10.10;99.90;;;;;;4862646;29;20555;-63
2023/01/11 08:07:59;;;;;;;1.10;1.00;;;10.10;99.90;;;;;;4864095;29;20246;-66
2023/01/11 08:10:26;;;;;;;2.67;1.20;;;10.10;99.90;;;;;;4864644;29;20682;-63
2023/01/11 08:15:41;;;;;;;2.60;1.30;;;10.20;99.90;;;;;;4863440;29;20691;-64
2023/01/11 08:18:10;;;;;;;2.20;1.73;;;10.20;99.90;;;;;;4849157;29;20201;-64
2023/01/11 08:20:38;;;;;;;3.07;1.50;;;10.20;99.90;;;;;;4855007;29;20233;-63
2023/01/11 08:23:08;;;;;;;4.03;1.70;;;10.20;99.90;;;;;;4865167;29;20292;-63
2023/01/11 08:25:35;;;;;;;2.33;1.70;;;10.20;1.00;;;;;;4868118;29;20194;-64
2023/01/11 08:28:04;;;;;;;1.77;1.63;;;10.20;1.00;;;;;;4865886;29;20246;-63
2023/01/11 08:30:32;;;;;;;1.80;1.70;;;10.20;1.00;;;;;;4864432;29;20607;-65
2023/01/11 08:33:05;;;;;;;3.07;1.93;;;10.20;1.00;;;;;;4865438;29;21169;-64
2023/01/11 08:35:37;;;;;;;2.43;2.00;;;10.20;1.00;;;;;;4863994;29;20210;-64
2023/01/11 08:38:04;;;;;;;3.60;2.03;;;10.20;1.00;;;;;;4865508;29;20202;-65
2023/01/11 08:40:31;;;;;;;3.10;1.90;;;10.20;1.00;;;;;;4867691;29;20202;-66
2023/01/11 08:42:58;;;;;;;4.50;1.97;;;10.20;1.00;;;;;;4864637;29;20325;-66
2023/01/11 08:45:25;;;;;;;2.40;2.00;;;10.20;1.00;;;;;;4867181;29;20673;-65
2023/01/11 08:47:53;;;;;;;2.93;2.10;;;10.20;1.00;;;;;;4865947;29;20277;-65
2023/01/11 08:50:21;;;;;;;2.43;1.93;;;10.20;1.00;;;;;;4855241;29;20226;-65
2023/01/11 08:52:49;;;;;;;2.87;2.13;;;10.30;1.00;;;;;;4866784;29;20310;-65
2023/01/11 08:55:18;;;;;;;2.77;1.93;;;10.30;1.00;;;;;;4866998;29;20681;-65
2023/01/11 08:57:45;;;;;;;2.30;1.87;;;10.30;1.00;;;;;;4849946;29;20197;-65
2023/01/11 09:00:13;;;;;;;2.83;1.90;;;10.40;1.00;;;;;;4867981;29;20521;-64
2023/01/11 09:02:40;;;;;;;2.20;2.00;;;10.40;1.00;;;;;;4866225;29;20194;-65
2023/01/11 09:05:08;;;;;;;6.87;4.70;;;10.40;1.00;;;;;;4849309;29;20985;-64
2023/01/11 09:07:35;;;;;;;4.83;4.33;;;10.40;1.00;;;;;;4864620;29;20210;-64
2023/01/11 09:10:03;;;;;;;4.30;3.53;;;10.40;1.00;;;;;;4866146;29;20443;-65
2023/01/11 09:12:31;;;;;;;2.93;2.30;;;10.40;1.00;;;;;;4867415;29;20659;-65
2023/01/11 09:14:58;;;;;;;2.90;2.47;;;10.40;1.00;;;;;;4865531;29;20214;-65
2023/01/11 09:17:25;;;;;;;3.17;2.87;;;10.50;1.00;;;;;;4864120;29;20239;-64
2023/01/11 09:19:52;;;;;;;3.10;2.90;;;10.50;1.00;;;;;;4858133;29;20305;-65
2023/01/11 09:22:20;;;;;;;3.30;3.00;;;10.50;1.00;;;;;;4863825;29;20540;-64
2023/01/11 09:24:47;;;;;;;5.87;4.03;;;10.50;1.00;;;;;;4855617;29;20267;-65
2023/01/11 09:27:15;;;;;;;4.07;3.70;;;10.60;1.00;;;;;;4856223;29;20217;-64
2023/01/11 09:29:42;;;;;;;3.60;3.30;;;10.60;99.90;;;;;;4863409;29;20539;-65
2023/01/11 09:32:09;;;;;;;4.20;3.80;;;10.60;99.90;;;;;;4849840;29;20652;-65
2023/01/11 09:34:36;;;;;;;5.50;5.00;;;10.70;99.90;;;;;;4865086;29;20214;-64
2023/01/11 09:37:05;;;;;;;5.97;5.30;;;10.70;99.90;;;;;;4850088;29;20276;-64
2023/01/11 09:39:33;;;;;;;6.87;6.20;;;10.80;99.90;;;;;;4866610;29;20230;-64
2023/01/11 09:42:30;;;;;;;9.90;8.90;;;10.80;99.90;;;;;;4865373;29;20249;-66
2023/01/11 09:45:20;;;;;;;10.27;8.37;;;10.80;99.90;;;;;;4863100;29;20563;-65
2023/01/11 09:48:10;;;;;;;9.60;6.13;;;10.80;99.90;;;;;;4865119;29;20733;-65
2023/01/11 09:50:42;;;;;;;8.63;7.03;;;10.80;99.90;;;;;;4865062;29;20261;-64
2023/01/11 09:53:27;;;;;;;9.30;7.57;;;10.80;99.90;;;;;;4863204;29;20194;-65
2023/01/11 09:55:57;;;;;;;8.70;7.80;;;10.80;21.00;;;;;;4863695;29;20284;-68
2023/01/11 09:58:37;;;;;;;12.77;8.43;;;10.80;1.00;;;;;;4854670;29;20238;-65
2023/01/11 10:01:32;;;;;;;10.90;8.47;;;10.70;1.00;;;;;;4863910;29;20205;-64
2023/01/11 10:04:19;;;;;;;12.33;6.93;;;10.70;1.00;;;;;;4848700;29;20596;-64
2023/01/11 10:07:16;;;;;;;15.60;5.57;;;10.60;1.00;;;;;;4833675;29;20206;-65
2023/01/11 10:10:17;;;;;;;12.93;5.33;;;10.40;1.00;;;;;;4834162;29;20218;-64
2023/01/11 10:13:17;;;;;;;15.03;4.13;;;10.40;1.00;;;;;;4864935;29;20216;-65
2023/01/11 10:16:46;;;;;;;18.80;4.37;;;10.40;99.90;;;;;;4865205;29;20228;-65
2023/01/11 10:19:38;;;;;;;16.43;4.57;;;10.40;99.90;;;;;;4854332;29;20198;-66
2023/01/11 10:22:22;;;;;;;19.80;4.30;;;10.30;99.90;;;;;;4862512;29;21055;-66
2023/01/11 10:24:56;;;;;;;16.63;4.50;;;10.30;99.90;;;;;;4864059;29;20213;-66
2023/01/11 10:27:35;;;;;;;20.60;4.60;;;10.30;99.90;;;;;;4861844;29;20848;-65
2023/01/11 10:30:32;;;;;;;17.17;4.20;;;10.30;99.90;;;;;;4862226;29;20202;-65
2023/01/11 10:41:53;;;;;;;16.63;4.43;;;10.30;99.90;;;;;;4863644;29;20294;-65
2023/01/11 10:44:30;;;;;;;18.87;4.07;;;10.30;99.90;;;;;;4864482;29;20240;-65
2023/01/11 10:46:58;;;;;;;23.43;4.83;;;10.30;99.90;;;;;;4861553;29;20675;-65
2023/01/11 10:49:48;;;;;;;16.73;3.70;;;10.30;99.90;;;;;;4863061;29;20208;-64
2023/01/11 10:52:34;;;;;;;12.83;4.47;;;10.30;99.90;;;;;;4864032;29;20208;-65
2023/01/11 10:55:11;;;;;;;10.57;3.93;;;10.30;99.90;;;;;;4862162;29;21128;-65
2023/01/11 10:58:00;;;;;;;16.53;4.23;;;10.20;99.90;;;;;;4861186;29;20200;-65
2023/01/11 11:00:38;;;;;;;17.73;4.23;;;10.20;99.90;;;;;;4845844;29;20298;-65
2023/01/11 11:03:40;;;;;;;16.50;4.30;;;10.20;99.90;;;;;;4859645;29;20214;-65
2023/01/11 11:06:15;;;;;;;19.33;4.50;;;10.20;99.90;;;;;;4864139;29;20217;-65
2023/01/11 11:08:54;;;;;;;13.63;4.03;;;10.20;99.90;;;;;;4863546;29;20750;-66
2023/01/11 11:11:35;;;;;;;15.57;4.90;;;10.30;99.90;;;;;;4847391;29;20213;-65
2023/01/11 11:14:17;;;;;;;14.03;4.90;;;10.30;99.90;;;;;;4845597;29;20281;-65
2023/01/11 11:17:12;;;;;;;11.03;4.33;;;10.30;99.90;;;;;;4861017;29;20206;-66
2023/01/11 11:19:39;;;;;;;12.83;4.47;;;10.30;99.90;;;;;;4848034;29;20289;-65
2023/01/11 11:22:10;;;;;;;13.47;4.57;;;10.30;99.90;;;;;;4863477;29;20205;-65
2023/01/11 11:24:42;;;;;;;16.00;4.53;;;10.40;99.90;;;;;;4864886;29;20209;-65
2023/01/11 11:27:39;;;;;;;14.97;4.63;;;10.40;99.90;;;;;;4847103;29;20211;-65
2023/01/11 11:30:10;;;;;;;15.40;4.47;;;10.40;99.90;;;;;;4863458;29;20265;-64
2023/01/11 11:32:41;;;;;;;20.37;5.33;;;10.40;99.90;;;;;;4847621;29;20218;-64
2023/01/11 11:35:35;;;;;;;17.03;4.70;;;10.50;85.40;;;;;;4862906;29;20593;-64
2023/01/11 11:38:03;;;;;;;14.13;4.33;;;10.80;90.70;;;;;;4861657;29;20210;-65
2023/01/11 11:40:36;;;;;;;14.03;4.53;;;11.60;3.90;;;;;;4864544;29;20203;-66
2023/01/11 11:43:21;;;;;;;11.60;3.83;;;13.50;1.00;;;;;;4862038;29;20206;-65
2023/01/11 11:45:51;;;;;;;13.48;3.60;;;13.50;1.00;;;;;;4864806;29;20284;-67
2023/01/11 11:48:19;;;;;;;12.00;4.05;;;13.40;1.00;;;;;;4861053;29;20209;-68
2023/01/11 11:50:48;;;;;;;14.98;3.90;;;13.00;1.00;;;;;;4864730;29;20206;-63
2023/01/11 11:53:28;;;;;;;14.17;4.13;;;12.00;1.00;;;;;;4864096;29;20210;-64
2023/01/11 11:55:56;;;;;;;13.53;3.07;;;11.60;1.00;;;;;;4866545;29;20610;-65
2023/01/11 11:58:25;;;;;;;16.80;4.00;;;11.30;1.00;;;;;;4852838;29;20197;-66
2023/01/11 12:00:52;;;;;;;13.73;3.57;;;11.00;1.00;;;;;;4867031;29;20356;-66
2023/01/11 12:03:29;;;;;;;16.10;3.60;;;10.90;1.00;;;;;;4867842;29;20679;-64
2023/01/11 12:06:06;;;;;;;16.03;3.97;;;11.10;1.00;;;;;;4849720;29;20364;-66
2023/01/11 12:08:34;;;;;;;10.60;3.20;;;11.20;1.00;;;;;;4865837;29;20225;-66
2023/01/11 12:11:05;;;;;;;14.47;3.90;;;11.10;1.00;;;;;;4867597;29;20693;-65
2023/01/11 12:13:35;;;;;;;15.30;3.40;;;11.20;1.00;;;;;;4865802;29;20200;-66
2023/01/11 12:16:19;;;;;;;11.70;3.63;;;11.30;1.00;;;;;;4865618;29;20222;-65
2023/01/11 12:18:46;;;;;;;15.23;3.57;;;11.70;1.00;;;;;;4865951;29;20209;-65
2023/01/11 12:21:29;;;;;;;11.73;3.47;;;12.70;1.00;;;;;;4852092;29;20274;-64
2023/01/11 12:24:24;;;;;;;15.50;3.20;;;12.60;1.00;;;;;;4867254;29;20205;-65
2023/01/11 12:27:03;;;;;;;9.87;3.40;;;12.00;1.00;;;;;;4866146;29;20250;-65
2023/01/11 12:29:30;;;;;;;11.77;4.17;;;11.50;1.00;;;;;;4868475;29;20725;-65
2023/01/11 12:32:09;;;;;;;13.47;4.07;;;11.20;1.00;;;;;;4865914;29;20206;-66
2023/01/11 12:34:44;;;;;;;15.83;3.90;;;11.00;1.00;;;;;;4866086;29;20713;-65
2023/01/11 12:37:54;;;;;;;14.97;3.80;;;10.90;1.00;;;;;;4864809;29;20212;-65
2023/01/11 12:41:02;;;;;;;10.03;3.60;;;11.40;1.00;;;;;;4852630;29;20206;-65
2023/01/11 12:43:50;;;;;;;10.10;3.97;;;11.80;1.00;;;;;;4867152;29;20205;-65
2023/01/11 12:46:38;;;;;;;12.67;4.87;;;11.70;1.00;;;;;;4865396;29;20201;-66
2023/01/11 12:49:24;;;;;;;12.87;4.73;;;11.50;1.00;;;;;;4850768;29;20686;-64
2023/01/11 12:52:22;;;;;;;14.43;3.93;;;11.30;1.00;;;;;;4847365;29;20221;-65
2023/01/11 12:55:19;;;;;;;13.77;4.97;;;11.00;1.00;;;;;;4859467;29;20229;-65
2023/01/11 12:58:00;;;;;;;11.97;4.33;;;10.80;1.00;;;;;;4864777;29;20677;-66
2023/01/11 13:00:45;;;;;;;20.23;4.70;;;11.00;1.00;;;;;;4867917;29;20194;-67
2023/01/11 13:03:32;;;;;;;11.73;4.43;;;11.10;1.00;;;;;;4864999;29;20312;-65
2023/01/11 13:06:23;;;;;;;12.83;4.90;;;10.90;1.00;;;;;;4867594;29;20321;-65
2023/01/11 13:09:15;;;;;;;17.47;4.90;;;10.90;1.00;;;;;;4856185;29;20213;-65
2023/01/11 13:11:54;;;;;;;15.57;5.17;;;11.00;1.00;;;;;;4857058;29;20214;-65
2023/01/11 13:14:55;;;;;;;22.07;5.90;;;10.90;1.00;;;;;;4864596;29;20205;-70
2023/01/11 13:17:28;;;;;;;13.50;4.73;;;11.10;1.00;;;;;;4848352;29;20242;-70
2023/01/11 13:20:07;;;;;;;12.93;4.90;;;11.40;1.00;;;;;;4867179;29;20202;-72
2023/01/11 13:22:38;;;;;;;13.03;4.77;;;11.60;1.00;;;;;;4850308;29;20202;-71
2023/01/11 13:25:21;;;;;;;15.07;4.13;;;11.70;1.00;;;;;;4865619;29;20210;-71
2023/01/11 13:27:50;;;;;;;14.07;4.43;;;11.70;1.00;;;;;;4863878;29;20634;-71
2023/01/11 13:30:19;;;;;;;12.63;3.70;;;11.70;1.00;;;;;;4866824;29;20212;-71
2023/01/11 13:32:52;;;;;;;10.20;3.60;;;11.40;1.00;;;;;;4854958;29;20205;-70
2023/01/11 13:35:35;;;;;;;14.53;3.90;;;11.10;1.00;;;;;;4848924;29;20254;-71
2023/01/11 13:39:01;;;;;;;19.43;3.53;;;11.10;1.00;;;;;;4865256;29;20658;-70
2023/01/11 13:41:36;;;;;;;10.80;3.20;;;11.10;1.00;;;;;;4865940;29;20216;-71
2023/01/11 13:44:14;;;;;;;10.07;2.97;;;11.20;1.00;;;;;;4864299;29;20765;-71
2023/01/11 13:46:50;;;;;;;7.73;3.57;;;11.10;1.00;;;;;;4840440;29;20297;-71
2023/01/11 13:49:47;;;;;;;10.93;3.37;;;11.20;1.00;;;;;;4863441;29;20213;-71
2023/01/11 13:52:24;;;;;;;7.17;3.40;;;11.10;1.00;;;;;;4864121;29;20280;-71
2023/01/11 13:54:51;;;;;;;10.83;4.63;;;10.90;1.00;;;;;;4863209;29;20206;-71
2023/01/11 13:57:31;;;;;;;15.53;3.70;;;10.80;1.00;;;;;;4866047;29;20280;-71
2023/01/11 14:00:05;;;;;;;11.37;3.57;;;10.70;1.00;;;;;;4848527;29;20352;-70